createdAt,value
2018-03-19T00:00:18.550Z,21.02
2018-03-19T00:00:50.182Z,21.05
2018-03-19T00:01:21.814Z,21.07
2018-03-19T00:01:53.442Z,21.12
2018-03-19T00:02:25.070Z,21.14
2018-03-19T00:02:56.702Z,21.13
2018-03-19T00:03:28.329Z,21.15
2018-03-19T00:03:59.999Z,21.13
2018-03-19T00:04:31.634Z,21.15
2018-03-19T00:05:03.258Z,21.16
2018-03-19T00:05:34.882Z,21.19
2018-03-19T00:06:06.506Z,21.19
2018-03-19T00:06:38.133Z,21.21
2018-03-19T00:07:09.758Z,21.25
2018-03-19T00:07:41.386Z,21.22
2018-03-19T00:08:13.018Z,21.21
2018-03-19T00:08:44.696Z,21.19
2018-03-19T00:09:16.320Z,21.19
2018-03-19T00:09:47.951Z,21.20
2018-03-19T00:10:19.579Z,21.19
2018-03-19T00:10:51.210Z,21.22
2018-03-19T00:11:22.829Z,21.23
2018-03-19T00:11:54.694Z,21.21
2018-03-19T00:12:26.322Z,21.21
2018-03-19T00:12:57.953Z,21.18
2018-03-19T00:13:29.586Z,21.20
2018-03-19T00:14:01.255Z,21.25
2018-03-19T00:14:32.882Z,21.20
2018-03-19T00:15:04.523Z,21.18
2018-03-19T00:15:36.151Z,21.17
2018-03-19T00:16:07.773Z,21.13
2018-03-19T00:16:39.451Z,21.16
2018-03-19T00:17:11.078Z,21.15
2018-03-19T00:17:42.703Z,21.14
2018-03-19T00:18:14.338Z,21.15
2018-03-19T00:18:45.968Z,21.16
2018-03-19T00:19:17.594Z,21.12
2018-03-19T00:19:49.222Z,21.13
2018-03-19T00:20:20.902Z,21.12
2018-03-19T00:20:52.534Z,21.14
2018-03-19T00:21:24.167Z,21.09
2018-03-19T00:21:55.798Z,21.10
2018-03-19T00:22:27.471Z,21.12
2018-03-19T00:22:59.097Z,21.06
2018-03-19T00:23:30.726Z,21.04
2018-03-19T00:24:02.362Z,21.07
2018-03-19T00:24:33.990Z,21.07
2018-03-19T00:25:05.618Z,21.08
2018-03-19T00:25:37.250Z,21.09
2018-03-19T00:26:08.922Z,21.06
2018-03-19T00:26:40.545Z,21.06
2018-03-19T00:27:12.173Z,21.07
2018-03-19T00:27:43.798Z,21.04
2018-03-19T00:28:15.421Z,21.01
2018-03-19T00:28:47.051Z,21.01
2018-03-19T00:29:18.683Z,21.00
2018-03-19T00:29:50.310Z,21.06
2018-03-19T00:30:21.934Z,21.01
2018-03-19T00:30:53.562Z,20.98
2018-03-19T00:31:25.230Z,21.03
2018-03-19T00:31:56.858Z,21.01
2018-03-19T00:32:28.522Z,21.00
2018-03-19T00:33:00.147Z,20.96
2018-03-19T00:33:31.774Z,20.96
2018-03-19T00:34:03.408Z,20.97
2018-03-19T00:34:35.034Z,20.97
2018-03-19T00:35:06.668Z,21.01
2018-03-19T00:35:38.298Z,21.01
2018-03-19T00:36:09.928Z,21.01
2018-03-19T00:36:41.553Z,20.99
2018-03-19T00:37:13.218Z,20.97
2018-03-19T00:37:44.842Z,21.00
2018-03-19T00:38:16.466Z,20.95
2018-03-19T00:38:48.090Z,20.93
2018-03-19T00:39:19.715Z,20.96
2018-03-19T00:39:51.342Z,20.95
2018-03-19T00:40:22.999Z,20.95
2018-03-19T00:40:54.631Z,20.98
2018-03-19T00:41:26.258Z,20.96
2018-03-19T00:41:57.882Z,20.97
2018-03-19T00:42:29.546Z,20.92
2018-03-19T00:43:01.190Z,20.94
2018-03-19T00:43:32.818Z,20.90
2018-03-19T00:44:04.442Z,20.93
2018-03-19T00:44:36.066Z,20.90
2018-03-19T00:45:07.690Z,20.95
2018-03-19T00:45:39.311Z,20.96
2018-03-19T00:46:10.935Z,20.95
2018-03-19T00:46:42.558Z,20.95
2018-03-19T00:47:14.190Z,20.93
2018-03-19T00:47:45.818Z,20.92
2018-03-19T00:48:17.442Z,20.93
2018-03-19T00:48:49.066Z,20.90
2018-03-19T00:49:20.726Z,20.85
2018-03-19T00:49:52.395Z,20.89
2018-03-19T00:50:24.017Z,20.87
2018-03-19T00:50:55.646Z,20.86
2018-03-19T00:51:27.301Z,20.88
2018-03-19T00:51:58.933Z,20.85
2018-03-19T00:52:30.558Z,20.84
2018-03-19T00:53:02.181Z,20.85
2018-03-19T00:53:33.810Z,20.87
2018-03-19T00:54:05.481Z,20.83
2018-03-19T00:54:37.110Z,20.82
2018-03-19T00:55:08.734Z,20.84
2018-03-19T00:55:40.358Z,20.85
2018-03-19T00:56:11.981Z,20.85
2018-03-19T00:56:43.606Z,20.86
2018-03-19T00:57:15.247Z,20.83
2018-03-19T00:57:46.878Z,20.81
2018-03-19T00:58:18.506Z,20.81
2018-03-19T00:58:50.138Z,20.84
2018-03-19T00:59:21.805Z,20.83
2018-03-19T00:59:53.430Z,20.84
2018-03-19T01:00:25.054Z,20.83
2018-03-19T01:00:56.690Z,20.84
2018-03-19T01:01:28.318Z,20.86
2018-03-19T01:01:59.942Z,20.86
2018-03-19T01:02:31.612Z,20.89
2018-03-19T01:03:03.238Z,20.88
2018-03-19T01:03:34.862Z,20.86
2018-03-19T01:04:06.486Z,20.86
2018-03-19T01:04:38.111Z,20.85
2018-03-19T01:05:09.773Z,20.86
2018-03-19T01:05:41.407Z,20.89
2018-03-19T01:06:13.034Z,20.89
2018-03-19T01:06:44.663Z,20.90
2018-03-19T01:07:16.286Z,20.91
2018-03-19T01:07:47.914Z,20.89
2018-03-19T01:08:19.540Z,20.87
2018-03-19T01:08:51.192Z,20.88
2018-03-19T01:09:22.822Z,20.86
2018-03-19T01:09:54.499Z,20.88
2018-03-19T01:10:26.122Z,20.87
2018-03-19T01:10:57.754Z,20.90
2018-03-19T01:11:29.423Z,20.93
2018-03-19T01:12:01.067Z,20.91
2018-03-19T01:12:32.690Z,20.94
2018-03-19T01:13:04.310Z,20.95
2018-03-19T01:13:35.934Z,20.98
2018-03-19T01:14:07.565Z,20.97
2018-03-19T01:14:39.186Z,20.96
2018-03-19T01:15:10.859Z,20.96
2018-03-19T01:15:42.481Z,21.02
2018-03-19T01:16:14.109Z,20.99
2018-03-19T01:16:45.730Z,21.01
2018-03-19T01:17:17.365Z,20.98
2018-03-19T01:17:48.991Z,20.98
2018-03-19T01:18:20.642Z,20.96
2018-03-19T01:18:52.272Z,20.98
2018-03-19T01:19:23.898Z,21.00
2018-03-19T01:19:55.525Z,21.02
2018-03-19T01:20:27.154Z,21.10
2018-03-19T01:20:58.777Z,21.11
2018-03-19T01:21:30.458Z,21.13
2018-03-19T01:22:02.088Z,21.15
2018-03-19T01:22:33.714Z,21.13
2018-03-19T01:23:05.343Z,21.18
2018-03-19T01:23:36.979Z,21.18
2018-03-19T01:24:08.610Z,21.17
2018-03-19T01:24:40.242Z,21.18
2018-03-19T01:25:11.866Z,21.21
2018-03-19T01:25:43.494Z,21.19
2018-03-19T01:26:15.118Z,21.18
2018-03-19T01:26:46.794Z,21.19
2018-03-19T01:27:18.419Z,21.21
2018-03-19T01:27:50.046Z,21.23
2018-03-19T01:28:21.669Z,21.22
2018-03-19T01:28:53.298Z,21.20
2018-03-19T01:29:24.926Z,21.22
2018-03-19T01:29:56.554Z,21.20
2018-03-19T01:30:28.178Z,21.24
2018-03-19T01:30:59.842Z,21.24
2018-03-19T01:31:31.518Z,21.22
2018-03-19T01:32:03.142Z,21.18
2018-03-19T01:32:34.767Z,21.22
2018-03-19T01:33:06.394Z,21.20
2018-03-19T01:33:38.021Z,21.22
2018-03-19T01:34:09.650Z,21.23
2018-03-19T01:34:41.278Z,21.22
2018-03-19T01:35:12.907Z,21.21
2018-03-19T01:35:44.529Z,21.21
2018-03-19T01:36:16.159Z,21.20
2018-03-19T01:36:47.786Z,21.20
2018-03-19T01:37:19.450Z,21.19
2018-03-19T01:37:51.074Z,21.17
2018-03-19T01:38:22.698Z,21.15
2018-03-19T01:38:54.330Z,21.14
2018-03-19T01:39:25.955Z,21.16
2018-03-19T01:39:57.587Z,21.16
2018-03-19T01:40:29.219Z,21.08
2018-03-19T01:41:00.854Z,21.11
2018-03-19T01:41:32.482Z,21.11
2018-03-19T01:42:04.154Z,21.15
2018-03-19T01:42:35.778Z,21.11
2018-03-19T01:43:07.407Z,21.10
2018-03-19T01:43:39.162Z,21.07
2018-03-19T01:44:10.793Z,21.06
2018-03-19T01:44:42.413Z,21.05
2018-03-19T01:45:14.038Z,21.08
2018-03-19T01:45:45.665Z,21.09
2018-03-19T01:46:17.293Z,21.05
2018-03-19T01:46:48.918Z,21.01
2018-03-19T01:47:20.542Z,21.03
2018-03-19T01:47:52.166Z,21.03
2018-03-19T01:48:23.802Z,21.02
2018-03-19T01:48:55.466Z,21.01
2018-03-19T01:49:27.099Z,21.02
2018-03-19T01:49:58.726Z,20.97
2018-03-19T01:50:30.345Z,20.97
2018-03-19T01:51:01.975Z,20.95
2018-03-19T01:51:33.606Z,21.00
2018-03-19T01:52:05.229Z,21.01
2018-03-19T01:52:36.853Z,20.98
2018-03-19T01:53:08.482Z,20.96
2018-03-19T01:53:40.114Z,20.92
2018-03-19T01:54:11.738Z,20.95
2018-03-19T01:54:43.372Z,20.99
2018-03-19T01:55:15.002Z,21.00
2018-03-19T01:55:46.666Z,21.00
2018-03-19T01:56:18.295Z,20.95
2018-03-19T01:56:49.917Z,20.94
2018-03-19T01:57:21.546Z,20.93
2018-03-19T01:57:53.222Z,20.93
2018-03-19T01:58:24.845Z,20.92
2018-03-19T01:58:56.474Z,20.93
2018-03-19T01:59:28.099Z,20.93
2018-03-19T01:59:59.722Z,20.90
2018-03-19T02:00:31.345Z,20.89
2018-03-19T02:01:02.969Z,20.92
2018-03-19T02:01:34.606Z,20.94
2018-03-19T02:02:06.238Z,20.87
2018-03-19T02:02:37.866Z,20.89
2018-03-19T02:03:09.490Z,20.90
2018-03-19T02:03:41.114Z,20.90
2018-03-19T02:04:12.783Z,20.88
2018-03-19T02:04:44.446Z,20.91
2018-03-19T02:05:16.070Z,20.89
2018-03-19T02:05:47.698Z,20.90
2018-03-19T02:06:19.322Z,20.91
2018-03-19T02:06:50.949Z,20.88
2018-03-19T02:07:22.574Z,20.87
2018-03-19T02:07:54.197Z,20.86
2018-03-19T02:08:25.828Z,20.84
2018-03-19T02:08:57.454Z,20.82
2018-03-19T02:09:29.134Z,20.83
2018-03-19T02:10:00.759Z,20.83
2018-03-19T02:10:32.385Z,20.84
2018-03-19T02:11:04.014Z,20.84
2018-03-19T02:11:35.642Z,20.88
2018-03-19T02:12:07.275Z,20.84
2018-03-19T02:12:38.898Z,20.85
2018-03-19T02:13:10.526Z,20.86
2018-03-19T02:13:42.156Z,20.88
2018-03-19T02:14:13.783Z,20.87
2018-03-19T02:14:45.450Z,20.90
2018-03-19T02:15:17.083Z,20.90
2018-03-19T02:15:48.706Z,20.92
2018-03-19T02:16:20.334Z,20.92
2018-03-19T02:16:51.962Z,20.90
2018-03-19T02:17:23.594Z,20.89
2018-03-19T02:17:55.254Z,20.90
2018-03-19T02:18:26.877Z,20.90
2018-03-19T02:18:58.506Z,20.89
2018-03-19T02:19:30.146Z,20.89
2018-03-19T02:20:01.797Z,20.90
2018-03-19T02:20:33.421Z,20.91
2018-03-19T02:21:05.088Z,20.92
2018-03-19T02:21:36.709Z,20.93
2018-03-19T02:22:08.330Z,20.93
2018-03-19T02:22:39.958Z,20.93
2018-03-19T02:23:11.590Z,20.93
2018-03-19T02:23:43.213Z,20.93
2018-03-19T02:24:14.835Z,20.94
2018-03-19T02:24:46.494Z,20.93
2018-03-19T02:25:18.118Z,20.97
2018-03-19T02:25:49.742Z,21.00
2018-03-19T02:26:21.473Z,20.99
2018-03-19T02:26:53.070Z,20.98
2018-03-19T02:27:24.702Z,20.97
2018-03-19T02:27:56.347Z,21.02
2018-03-19T02:28:27.978Z,20.95
2018-03-19T02:28:59.602Z,20.95
2018-03-19T02:29:31.226Z,20.95
2018-03-19T02:30:02.901Z,20.96
2018-03-19T02:30:34.527Z,20.95
2018-03-19T02:31:06.158Z,20.97
2018-03-19T02:31:37.782Z,20.98
2018-03-19T02:32:09.412Z,20.95
2018-03-19T02:32:41.052Z,21.00
2018-03-19T02:33:12.678Z,21.00
2018-03-19T02:33:44.310Z,21.04
2018-03-19T02:34:15.939Z,21.05
2018-03-19T02:34:47.565Z,21.02
2018-03-19T02:35:19.230Z,21.03
2018-03-19T02:35:50.860Z,21.07
2018-03-19T02:36:22.514Z,21.10
2018-03-19T02:36:54.142Z,21.13
2018-03-19T02:37:25.767Z,21.13
2018-03-19T02:37:57.393Z,21.17
2018-03-19T02:38:29.018Z,21.16
2018-03-19T02:39:00.643Z,21.13
2018-03-19T02:39:32.275Z,21.14
2018-03-19T02:40:03.943Z,21.17
2018-03-19T02:40:35.571Z,21.10
2018-03-19T02:41:07.206Z,21.12
2018-03-19T02:41:38.845Z,21.13
2018-03-19T02:42:10.478Z,21.17
2018-03-19T02:42:42.178Z,21.15
2018-03-19T02:43:13.802Z,21.13
2018-03-19T02:43:45.471Z,21.14
2018-03-19T02:44:17.093Z,21.16
2018-03-19T02:44:48.825Z,21.20
2018-03-19T02:45:20.515Z,21.17
2018-03-19T02:45:52.147Z,21.20
2018-03-19T02:46:23.773Z,21.18
2018-03-19T02:46:55.471Z,21.18
2018-03-19T02:47:27.058Z,21.18
2018-03-19T02:47:58.682Z,21.13
2018-03-19T02:48:30.310Z,21.14
2018-03-19T02:49:01.938Z,21.13
2018-03-19T02:49:33.572Z,21.12
2018-03-19T02:50:05.294Z,21.17
2018-03-19T02:50:36.930Z,21.15
2018-03-19T02:51:08.555Z,21.20
2018-03-19T02:51:40.214Z,21.18
2018-03-19T02:52:11.838Z,21.18
2018-03-19T02:52:43.462Z,21.20
2018-03-19T02:53:15.091Z,21.17
2018-03-19T02:53:46.715Z,21.16
2018-03-19T02:54:18.338Z,21.15
2018-03-19T02:54:50.003Z,21.12
2018-03-19T02:55:21.637Z,21.07
2018-03-19T02:55:53.266Z,21.10
2018-03-19T02:56:24.891Z,21.08
2018-03-19T02:56:56.514Z,21.06
2018-03-19T02:57:28.178Z,21.07
2018-03-19T02:57:59.810Z,21.07
2018-03-19T02:58:31.439Z,21.08
2018-03-19T02:59:03.065Z,21.07
2018-03-19T02:59:34.686Z,21.09
2018-03-19T03:00:06.320Z,21.09
2018-03-19T03:00:37.947Z,21.05
2018-03-19T03:01:09.571Z,21.06
2018-03-19T03:01:41.236Z,21.05
2018-03-19T03:02:12.863Z,21.04
2018-03-19T03:02:44.487Z,21.01
2018-03-19T03:03:16.110Z,21.00
2018-03-19T03:03:47.739Z,20.98
2018-03-19T03:04:19.372Z,21.01
2018-03-19T03:04:51.006Z,21.04
2018-03-19T03:05:22.631Z,21.08
2018-03-19T03:05:54.258Z,21.06
2018-03-19T03:06:25.886Z,21.03
2018-03-19T03:06:57.558Z,21.00
2018-03-19T03:07:29.183Z,21.00
2018-03-19T03:08:00.805Z,20.98
2018-03-19T03:08:32.434Z,20.99
2018-03-19T03:09:04.062Z,20.97
2018-03-19T03:09:35.726Z,20.98
2018-03-19T03:10:07.350Z,20.99
2018-03-19T03:10:38.974Z,20.95
2018-03-19T03:11:10.598Z,20.96
2018-03-19T03:11:42.264Z,20.98
2018-03-19T03:12:13.893Z,20.96
2018-03-19T03:12:45.522Z,20.98
2018-03-19T03:13:17.146Z,20.94
2018-03-19T03:13:48.770Z,20.96
2018-03-19T03:14:20.434Z,20.96
2018-03-19T03:14:52.070Z,20.97
2018-03-19T03:15:23.698Z,20.99
2018-03-19T03:15:55.325Z,20.93
2018-03-19T03:16:26.950Z,20.95
2018-03-19T03:16:58.618Z,20.98
2018-03-19T03:17:30.246Z,20.98
2018-03-19T03:18:01.875Z,20.97
2018-03-19T03:18:33.502Z,20.95
2018-03-19T03:19:05.242Z,20.98
2018-03-19T03:19:36.870Z,20.94
2018-03-19T03:20:08.537Z,20.92
2018-03-19T03:20:40.168Z,20.88
2018-03-19T03:21:11.795Z,20.91
2018-03-19T03:21:43.418Z,20.95
2018-03-19T03:22:15.045Z,20.90
2018-03-19T03:22:46.671Z,20.90
2018-03-19T03:23:18.309Z,20.88
2018-03-19T03:23:49.939Z,20.87
2018-03-19T03:24:21.566Z,20.89
2018-03-19T03:24:53.198Z,20.90
2018-03-19T03:25:24.825Z,20.90
2018-03-19T03:25:56.499Z,20.93
2018-03-19T03:26:28.130Z,20.91
2018-03-19T03:26:59.762Z,20.90
2018-03-19T03:27:31.386Z,20.89
2018-03-19T03:28:03.010Z,20.88
2018-03-19T03:28:34.634Z,20.87
2018-03-19T03:29:06.263Z,20.86
2018-03-19T03:29:37.890Z,20.86
2018-03-19T03:30:09.524Z,20.83
2018-03-19T03:30:41.150Z,20.85
2018-03-19T03:31:12.780Z,20.88
2018-03-19T03:31:44.412Z,20.85
2018-03-19T03:32:16.043Z,20.84
2018-03-19T03:32:47.666Z,20.85
2018-03-19T03:33:19.291Z,20.82
2018-03-19T03:33:50.918Z,20.84
2018-03-19T03:34:22.546Z,20.84
2018-03-19T03:34:54.174Z,20.83
2018-03-19T03:35:25.849Z,20.80
2018-03-19T03:35:57.474Z,20.82
2018-03-19T03:36:29.099Z,20.83
2018-03-19T03:37:00.726Z,20.81
2018-03-19T03:37:32.355Z,20.83
2018-03-19T03:38:03.978Z,20.83
2018-03-19T03:38:35.611Z,20.86
2018-03-19T03:39:07.234Z,20.84
2018-03-19T03:39:38.857Z,20.82
2018-03-19T03:40:10.486Z,20.84
2018-03-19T03:40:42.110Z,20.89
2018-03-19T03:41:13.738Z,21.03
2018-03-19T03:41:45.362Z,21.00
2018-03-19T03:42:16.986Z,20.96
2018-03-19T03:42:48.661Z,20.94
2018-03-19T03:43:20.283Z,20.90
2018-03-19T03:43:51.910Z,20.87
2018-03-19T03:44:23.539Z,20.90
2018-03-19T03:44:55.166Z,20.89
2018-03-19T03:45:26.800Z,20.96
2018-03-19T03:45:58.462Z,20.99
2018-03-19T03:46:30.092Z,21.00
2018-03-19T03:47:01.755Z,21.06
2018-03-19T03:47:33.386Z,21.15
2018-03-19T03:48:05.058Z,21.20
2018-03-19T03:48:36.715Z,21.21
2018-03-19T03:49:08.351Z,21.29
2018-03-19T03:49:39.950Z,21.30
2018-03-19T03:50:11.548Z,21.20
2018-03-19T03:50:43.149Z,21.37
2018-03-19T03:51:14.746Z,21.39
2018-03-19T03:51:46.337Z,21.38
2018-03-19T03:52:17.934Z,21.41
2018-03-19T03:52:49.534Z,21.42
2018-03-19T03:53:21.174Z,21.38
2018-03-19T03:53:52.770Z,21.35
2018-03-19T03:54:24.372Z,21.31
2018-03-19T03:54:55.965Z,21.29
2018-03-19T03:55:27.557Z,21.25
2018-03-19T03:55:59.149Z,21.33
2018-03-19T03:56:30.745Z,21.36
2018-03-19T03:57:02.339Z,21.35
2018-03-19T03:57:33.934Z,21.27
2018-03-19T03:58:05.525Z,21.23
2018-03-19T03:58:37.154Z,21.26
2018-03-19T03:59:08.750Z,21.24
2018-03-19T03:59:40.349Z,21.19
2018-03-19T04:00:11.942Z,21.16
2018-03-19T04:00:43.538Z,21.18
2018-03-19T04:01:15.144Z,21.18
2018-03-19T04:01:46.782Z,21.17
2018-03-19T04:02:18.377Z,21.11
2018-03-19T04:02:49.974Z,21.13
2018-03-19T04:03:21.704Z,21.11
2018-03-19T04:03:53.218Z,21.10
2018-03-19T04:04:24.809Z,21.08
2018-03-19T04:04:56.401Z,21.11
2018-03-19T04:05:28.044Z,21.08
2018-03-19T04:05:59.637Z,21.13
2018-03-19T04:06:31.233Z,21.10
2018-03-19T04:07:02.826Z,21.07
2018-03-19T04:07:34.514Z,21.10
2018-03-19T04:08:06.109Z,21.10
2018-03-19T04:08:37.702Z,21.08
2018-03-19T04:09:09.293Z,21.08
2018-03-19T04:09:40.886Z,21.04
2018-03-19T04:10:12.482Z,21.01
2018-03-19T04:10:44.073Z,21.01
2018-03-19T04:11:15.671Z,21.00
2018-03-19T04:11:47.265Z,21.00
2018-03-19T04:12:18.862Z,20.98
2018-03-19T04:12:50.497Z,21.03
2018-03-19T04:13:22.093Z,21.02
2018-03-19T04:13:53.694Z,20.96
2018-03-19T04:14:25.290Z,20.93
2018-03-19T04:14:56.889Z,20.94
2018-03-19T04:15:28.510Z,21.00
2018-03-19T04:16:00.110Z,20.92
2018-03-19T04:16:31.758Z,20.93
2018-03-19T04:17:03.354Z,20.92
2018-03-19T04:17:34.949Z,20.88
2018-03-19T04:18:06.545Z,20.89
2018-03-19T04:18:38.141Z,20.86
2018-03-19T04:19:09.737Z,20.85
2018-03-19T04:19:41.333Z,20.83
2018-03-19T04:20:12.930Z,20.78
2018-03-19T04:20:44.521Z,20.80
2018-03-19T04:21:16.117Z,20.73
2018-03-19T04:21:47.713Z,20.75
2018-03-19T04:22:19.306Z,20.71
2018-03-19T04:22:50.897Z,20.68
2018-03-19T04:23:22.497Z,20.62
2018-03-19T04:23:54.089Z,20.61
2018-03-19T04:24:25.693Z,20.61
2018-03-19T04:24:57.286Z,20.57
2018-03-19T04:25:28.945Z,20.53
2018-03-19T04:26:00.542Z,20.51
2018-03-19T04:26:32.133Z,20.48
2018-03-19T04:27:03.729Z,20.44
2018-03-19T04:27:35.329Z,20.42
2018-03-19T04:28:06.926Z,20.40
2018-03-19T04:28:38.518Z,20.39
2018-03-19T04:29:10.113Z,20.38
2018-03-19T04:29:41.714Z,20.38
2018-03-19T04:30:13.306Z,20.33
2018-03-19T04:30:44.938Z,20.33
2018-03-19T04:31:16.533Z,20.33
2018-03-19T04:31:48.125Z,20.33
2018-03-19T04:32:19.717Z,20.32
2018-03-19T04:32:51.377Z,20.31
2018-03-19T04:33:22.982Z,20.32
2018-03-19T04:33:54.582Z,20.31
2018-03-19T04:34:26.208Z,20.32
2018-03-19T04:34:57.802Z,20.30
2018-03-19T04:35:29.410Z,20.31
2018-03-19T04:36:01.038Z,20.32
2018-03-19T04:36:32.634Z,20.33
2018-03-19T04:37:04.233Z,20.33
2018-03-19T04:37:35.826Z,20.35
2018-03-19T04:38:07.454Z,20.33
2018-03-19T04:38:39.050Z,20.34
2018-03-19T04:39:10.650Z,20.34
2018-03-19T04:39:42.241Z,20.32
2018-03-19T04:40:13.837Z,20.34
2018-03-19T04:40:45.434Z,20.35
2018-03-19T04:41:17.027Z,20.39
2018-03-19T04:41:48.622Z,20.38
2018-03-19T04:42:20.223Z,20.40
2018-03-19T04:42:51.817Z,20.41
2018-03-19T04:43:23.453Z,20.43
2018-03-19T04:43:55.049Z,20.44
2018-03-19T04:44:26.646Z,20.44
2018-03-19T04:44:58.250Z,20.46
2018-03-19T04:45:29.846Z,20.49
2018-03-19T04:46:01.441Z,20.49
2018-03-19T04:46:33.034Z,20.51
2018-03-19T04:47:04.630Z,20.54
2018-03-19T04:47:36.221Z,20.56
2018-03-19T04:48:07.858Z,20.55
2018-03-19T04:48:39.453Z,20.56
2018-03-19T04:49:11.048Z,20.55
2018-03-19T04:49:42.666Z,20.56
2018-03-19T04:50:14.257Z,20.68
2018-03-19T04:50:45.857Z,20.66
2018-03-19T04:51:17.482Z,20.67
2018-03-19T04:51:49.154Z,20.69
2018-03-19T04:52:20.779Z,20.71
2018-03-19T04:52:52.403Z,20.75
2018-03-19T04:53:24.030Z,20.78
2018-03-19T04:53:55.654Z,20.81
2018-03-19T04:54:27.318Z,20.83
2018-03-19T04:54:58.941Z,20.80
2018-03-19T04:55:30.571Z,20.82
2018-03-19T04:56:02.230Z,20.86
2018-03-19T04:56:33.855Z,20.88
2018-03-19T04:57:05.489Z,20.87
2018-03-19T04:57:37.119Z,20.94
2018-03-19T04:58:08.742Z,20.92
2018-03-19T04:58:40.366Z,20.94
2018-03-19T04:59:11.990Z,20.87
2018-03-19T04:59:43.615Z,20.93
2018-03-19T05:00:15.282Z,20.96
2018-03-19T05:00:46.915Z,20.99
2018-03-19T05:01:18.547Z,21.01
2018-03-19T05:01:50.174Z,20.99
2018-03-19T05:02:21.803Z,21.01
2018-03-19T05:02:53.428Z,21.06
2018-03-19T05:03:25.104Z,21.10
2018-03-19T05:03:56.718Z,21.10
2018-03-19T05:04:28.342Z,21.05
2018-03-19T05:05:00.088Z,21.02
2018-03-19T05:05:31.815Z,20.98
2018-03-19T05:06:03.439Z,20.94
2018-03-19T05:06:35.070Z,20.91
2018-03-19T05:07:06.700Z,20.89
2018-03-19T05:07:38.326Z,20.90
2018-03-19T05:08:09.950Z,20.87
2018-03-19T05:08:41.574Z,20.84
2018-03-19T05:09:13.203Z,20.83
2018-03-19T05:09:44.870Z,20.82
2018-03-19T05:10:16.498Z,20.78
2018-03-19T05:10:48.122Z,20.76
2018-03-19T05:11:19.751Z,20.73
2018-03-19T05:11:51.383Z,20.73
2018-03-19T05:12:23.010Z,20.72
2018-03-19T05:12:54.638Z,20.67
2018-03-19T05:13:26.261Z,20.65
2018-03-19T05:13:57.885Z,20.65
2018-03-19T05:14:29.506Z,20.66
2018-03-19T05:15:01.179Z,20.64
2018-03-19T05:15:32.810Z,20.63
2018-03-19T05:16:04.442Z,20.62
2018-03-19T05:16:36.069Z,20.58
2018-03-19T05:17:07.699Z,20.55
2018-03-19T05:17:39.353Z,20.56
2018-03-19T05:18:10.987Z,20.56
2018-03-19T05:18:42.609Z,20.56
2018-03-19T05:19:14.237Z,20.56
2018-03-19T05:19:45.862Z,20.54
2018-03-19T05:20:17.525Z,20.51
2018-03-19T05:20:49.155Z,20.51
2018-03-19T05:21:20.782Z,20.52
2018-03-19T05:21:52.412Z,20.53
2018-03-19T05:22:24.053Z,20.55
2018-03-19T05:22:55.682Z,20.55
2018-03-19T05:23:27.326Z,20.57
2018-03-19T05:23:58.951Z,20.55
2018-03-19T05:24:30.623Z,20.56
2018-03-19T05:25:02.255Z,20.57
2018-03-19T05:25:33.882Z,20.56
2018-03-19T05:26:05.533Z,20.57
2018-03-19T05:26:37.157Z,20.57
2018-03-19T05:27:08.822Z,20.58
2018-03-19T05:27:40.446Z,20.62
2018-03-19T05:28:12.074Z,20.61
2018-03-19T05:28:43.702Z,20.60
2018-03-19T05:29:15.333Z,20.64
2018-03-19T05:29:46.966Z,20.63
2018-03-19T05:30:18.610Z,20.63
2018-03-19T05:30:50.238Z,20.61
2018-03-19T05:31:21.877Z,20.60
2018-03-19T05:31:53.542Z,20.64
2018-03-19T05:32:25.214Z,20.64
2018-03-19T05:32:56.842Z,20.64
2018-03-19T05:33:28.474Z,20.65
2018-03-19T05:34:00.098Z,20.65
2018-03-19T05:34:31.722Z,20.67
2018-03-19T05:35:03.351Z,20.65
2018-03-19T05:35:34.983Z,20.66
2018-03-19T05:36:06.613Z,20.65
2018-03-19T05:36:38.248Z,20.65
2018-03-19T05:37:09.886Z,20.66
2018-03-19T05:37:41.510Z,20.68
2018-03-19T05:38:13.135Z,20.63
2018-03-19T05:38:44.762Z,20.62
2018-03-19T05:39:16.398Z,20.59
2018-03-19T05:39:48.026Z,20.61
2018-03-19T05:40:19.654Z,20.59
2018-03-19T05:40:51.334Z,20.54
2018-03-19T05:41:22.962Z,20.56
2018-03-19T05:41:54.670Z,20.57
2018-03-19T05:42:26.306Z,20.61
2018-03-19T05:42:57.935Z,20.61
2018-03-19T05:43:29.558Z,20.60
2018-03-19T05:44:01.182Z,20.61
2018-03-19T05:44:32.827Z,20.58
2018-03-19T05:45:04.459Z,20.60
2018-03-19T05:45:36.090Z,20.59
2018-03-19T05:46:07.758Z,20.59
2018-03-19T05:46:39.426Z,20.63
2018-03-19T05:47:11.054Z,20.61
2018-03-19T05:47:42.722Z,20.57
2018-03-19T05:48:14.350Z,20.59
2018-03-19T05:48:45.974Z,20.58
2018-03-19T05:49:17.598Z,20.58
2018-03-19T05:49:49.226Z,20.59
2018-03-19T05:50:20.853Z,20.59
2018-03-19T05:50:52.482Z,20.61
2018-03-19T05:51:24.111Z,20.59
2018-03-19T05:51:55.782Z,20.58
2018-03-19T05:52:27.405Z,20.58
2018-03-19T05:52:59.030Z,20.61
2018-03-19T05:53:30.659Z,20.60
2018-03-19T05:54:02.330Z,20.61
2018-03-19T05:54:33.958Z,20.60
2018-03-19T05:55:05.585Z,20.60
2018-03-19T05:55:37.211Z,20.63
2018-03-19T05:56:08.833Z,20.61
2018-03-19T05:56:40.496Z,20.63
2018-03-19T05:57:12.126Z,20.63
2018-03-19T05:57:43.750Z,20.65
2018-03-19T05:58:15.379Z,20.67
2018-03-19T05:58:47.006Z,20.69
2018-03-19T05:59:18.630Z,20.66
2018-03-19T05:59:50.258Z,20.64
2018-03-19T06:00:21.889Z,20.64
2018-03-19T06:00:53.579Z,20.65
2018-03-19T06:01:25.201Z,20.65
2018-03-19T06:01:56.835Z,20.65
2018-03-19T06:02:28.458Z,20.65
2018-03-19T06:03:00.086Z,20.66
2018-03-19T06:03:31.709Z,20.69
2018-03-19T06:04:03.377Z,20.70
2018-03-19T06:04:35.008Z,20.69
2018-03-19T06:05:06.639Z,20.67
2018-03-19T06:05:38.262Z,20.68
2018-03-19T06:06:09.895Z,20.68
2018-03-19T06:06:41.587Z,20.69
2018-03-19T06:07:13.210Z,20.73
2018-03-19T06:07:44.834Z,20.70
2018-03-19T06:08:16.461Z,20.69
2018-03-19T06:08:48.082Z,20.72
2018-03-19T06:09:19.710Z,20.74
2018-03-19T06:09:51.334Z,20.75
2018-03-19T06:10:22.964Z,20.74
2018-03-19T06:10:54.598Z,20.75
2018-03-19T06:11:26.222Z,20.75
2018-03-19T06:11:57.887Z,20.76
2018-03-19T06:12:29.518Z,20.78
2018-03-19T06:13:01.154Z,20.78
2018-03-19T06:13:32.794Z,20.76
2018-03-19T06:14:04.422Z,20.76
2018-03-19T06:14:36.045Z,20.80
2018-03-19T06:15:07.669Z,20.81
2018-03-19T06:15:39.294Z,20.82
2018-03-19T06:16:10.929Z,20.81
2018-03-19T06:16:42.553Z,20.81
2018-03-19T06:17:14.230Z,20.83
2018-03-19T06:17:45.858Z,20.85
2018-03-19T06:18:17.486Z,20.87
2018-03-19T06:18:49.114Z,20.89
2018-03-19T06:19:20.742Z,20.87
2018-03-19T06:19:52.366Z,20.88
2018-03-19T06:20:23.989Z,20.90
2018-03-19T06:20:55.615Z,20.97
2018-03-19T06:21:27.242Z,20.97
2018-03-19T06:21:58.918Z,20.98
2018-03-19T06:22:30.542Z,20.94
2018-03-19T06:23:02.170Z,20.91
2018-03-19T06:23:33.793Z,20.93
2018-03-19T06:24:05.418Z,20.93
2018-03-19T06:24:37.042Z,20.93
2018-03-19T06:25:08.670Z,20.93
2018-03-19T06:25:40.294Z,20.92
2018-03-19T06:26:11.918Z,20.89
2018-03-19T06:26:43.546Z,20.90
2018-03-19T06:27:15.206Z,20.87
2018-03-19T06:27:46.826Z,20.88
2018-03-19T06:28:18.458Z,20.90
2018-03-19T06:28:50.082Z,20.91
2018-03-19T06:29:21.710Z,20.93
2018-03-19T06:29:53.342Z,20.92
2018-03-19T06:30:24.966Z,20.93
2018-03-19T06:30:56.590Z,20.91
2018-03-19T06:31:28.214Z,20.92
2018-03-19T06:31:59.880Z,20.94
2018-03-19T06:32:31.510Z,20.93
2018-03-19T06:33:03.137Z,20.92
2018-03-19T06:33:34.770Z,20.90
2018-03-19T06:34:06.443Z,20.92
2018-03-19T06:34:38.065Z,20.94
2018-03-19T06:35:09.699Z,20.92
2018-03-19T06:35:41.346Z,20.92
2018-03-19T06:36:12.979Z,20.92
2018-03-19T06:36:44.610Z,20.89
2018-03-19T06:37:16.234Z,20.93
2018-03-19T06:37:47.909Z,20.96
2018-03-19T06:38:19.550Z,20.95
2018-03-19T06:38:51.190Z,20.95
2018-03-19T06:39:22.814Z,20.93
2018-03-19T06:39:54.441Z,20.97
2018-03-19T06:40:26.071Z,20.96
2018-03-19T06:40:57.698Z,20.95
2018-03-19T06:41:29.326Z,20.94
2018-03-19T06:42:00.963Z,21.00
2018-03-19T06:42:32.635Z,20.98
2018-03-19T06:43:04.258Z,21.00
2018-03-19T06:43:35.886Z,20.97
2018-03-19T06:44:07.510Z,20.97
2018-03-19T06:44:39.142Z,20.98
2018-03-19T06:45:10.810Z,20.98
2018-03-19T06:45:42.434Z,20.96
2018-03-19T06:46:14.058Z,20.95
2018-03-19T06:46:45.682Z,20.94
2018-03-19T06:47:17.306Z,20.95